Observation data for Gail on 08/14/2019      Previous  Date  Next       Current Mesonet Observations  Soil Data  Daily Summary Page  Observations in Plain Language
KGGS 140500Z 05006KT 30/17 A3005 RMK A01 T02960172  RH  050%=      5-min Rain = 0
KGGS 140505Z 05007KT 30/17 A3005 RMK A01 T02950173  RH  050%=      5-min Rain = 0
KGGS 140510Z 05006KT 29/17 A3005 RMK A01 T02940174  RH  051%=      5-min Rain = 0
KGGS 140515Z 05006KT 29/18 A3005 RMK A01 T02930175  RH  051%=      5-min Rain = 0
KGGS 140520Z 05006KT 29/18 A3006 RMK A01 T02920175  RH  052%=      5-min Rain = 0
KGGS 140525Z 05006KT 29/18 A3006 RMK A01 T02920176  RH  052%=      5-min Rain = 0
KGGS 140530Z 04006KT 29/18 A3006 RMK A01 T02910176  RH  053%=      5-min Rain = 0
KGGS 140535Z 05006KT 29/18 A3006 RMK A01 T02900176  RH  053%=      5-min Rain = 0
KGGS 140540Z 05006KT 29/18 A3006 RMK A01 T02900176  RH  053%=      5-min Rain = 0
KGGS 140545Z 04007KT 29/18 A3006 RMK A01 T02890176  RH  053%=      5-min Rain = 0
KGGS 140550Z 04007KT 29/18 A3006 RMK A01 T02880176  RH  053%=      5-min Rain = 0
KGGS 140555Z 04007KT 29/18 A3007 RMK A01 T02870176  RH  054%=      5-min Rain = 0
KGGS 140600Z 04006KT 29/18 A3006 RMK A01 T02870176  RH  054%=      5-min Rain = 0
KGGS 140605Z 05005KT 29/18 A3006 RMK A01 T02850176  RH  054%=      5-min Rain = 0
KGGS 140610Z 04005KT 29/18 A3006 RMK A01 T02850176  RH  054%=      5-min Rain = 0
KGGS 140615Z 04005KT 28/18 A3006 RMK A01 T02840176  RH  055%=      5-min Rain = 0
KGGS 140620Z 04005KT 28/18 A3006 RMK A01 T02830176  RH  055%=      5-min Rain = 0
KGGS 140625Z 04006KT 28/18 A3006 RMK A01 T02820177  RH  056%=      5-min Rain = 0
KGGS 140630Z 04005KT 28/18 A3006 RMK A01 T02810178  RH  056%=      5-min Rain = 0
KGGS 140635Z 05006KT 28/18 A3006 RMK A01 T02820179  RH  056%=      5-min Rain = 0
KGGS 140640Z 04006KT 28/18 A3006 RMK A01 T02810179  RH  057%=      5-min Rain = 0
KGGS 140645Z 04006KT 28/18 A3006 RMK A01 T02800179  RH  057%=      5-min Rain = 0
KGGS 140650Z 04007KT 28/18 A3006 RMK A01 T02800180  RH  057%=      5-min Rain = 0
KGGS 140655Z 04007KT 28/18 A3006 RMK A01 T02800180  RH  058%=      5-min Rain = 0
KGGS 140700Z 04007KT 28/18 A3006 RMK A01 T02790180  RH  058%=      5-min Rain = 0
KGGS 140705Z 04006KT 28/18 A3006 RMK A01 T02790180  RH  058%=      5-min Rain = 0
KGGS 140710Z 03008KT 28/18 A3006 RMK A01 T02780180  RH  058%=      5-min Rain = 0
KGGS 140715Z 04008KT 28/18 A3006 RMK A01 T02780180  RH  058%=      5-min Rain = 0
KGGS 140720Z 04007KT 28/18 A3006 RMK A01 T02780179  RH  058%=      5-min Rain = 0
KGGS 140725Z 04008KT 28/18 A3005 RMK A01 T02780180  RH  058%=      5-min Rain = 0
KGGS 140730Z 04007KT 28/18 A3005 RMK A01 T02760179  RH  059%=      5-min Rain = 0
KGGS 140735Z 05007KT 28/18 A3005 RMK A01 T02750180  RH  059%=      5-min Rain = 0
KGGS 140740Z 04007KT 27/18 A3006 RMK A01 T02740180  RH  059%=      5-min Rain = 0
KGGS 140745Z 04008KT 27/18 A3006 RMK A01 T02730180  RH  060%=      5-min Rain = 0
KGGS 140750Z 04009G14KT 27/18 A3006 RMK A01 T02740181  RH  060%=      5-min Rain = 0
KGGS 140755Z 04008G14KT 27/18 A3006 RMK A01 T02740181  RH  060%=      5-min Rain = 0
KGGS 140800Z 03009KT 27/18 A3006 RMK A01 T02730180  RH  060%=      5-min Rain = 0
KGGS 140805Z 03010KT 27/18 A3006 RMK A01 T02720180  RH  060%=      5-min Rain = 0
KGGS 140810Z 03008KT 27/18 A3007 RMK A01 T02720180  RH  060%=      5-min Rain = 0
KGGS 140815Z 04009G14KT 27/18 A3007 RMK A01 T02720181  RH  061%=      5-min Rain = 0
KGGS 140820Z 04008G13KT 27/18 A3006 RMK A01 T02710181  RH  061%=      5-min Rain = 0
KGGS 140825Z 04007KT 27/18 A3006 RMK A01 T02700181  RH  061%=      5-min Rain = 0
KGGS 140830Z 04007KT 27/18 A3006 RMK A01 T02690181  RH  062%=      5-min Rain = 0
KGGS 140835Z 04006KT 27/18 A3006 RMK A01 T02680181  RH  062%=      5-min Rain = 0
KGGS 140840Z 05005KT 27/18 A3006 RMK A01 T02660181  RH  063%=      5-min Rain = 0
KGGS 140845Z 04006KT 27/18 A3006 RMK A01 T02660181  RH  063%=      5-min Rain = 0
KGGS 140850Z 05007KT 27/18 A3006 RMK A01 T02650181  RH  063%=      5-min Rain = 0
KGGS 140855Z 05007KT 27/18 A3006 RMK A01 T02650181  RH  063%=      5-min Rain = 0
KGGS 140900Z 05007KT 27/18 A3006 RMK A01 T02650181  RH  063%=      5-min Rain = 0
KGGS 140905Z 04007KT 27/18 A3006 RMK A01 T02650180  RH  063%=      5-min Rain = 0
KGGS 140910Z 04007KT 26/18 A3006 RMK A01 T02640180  RH  063%=      5-min Rain = 0
KGGS 140915Z 04006KT 26/18 A3006 RMK A01 T02630180  RH  063%=      5-min Rain = 0
KGGS 140920Z 03007KT 26/18 A3006 RMK A01 T02630180  RH  064%=      5-min Rain = 0
KGGS 140925Z 04007KT 26/18 A3006 RMK A01 T02630180  RH  063%=      5-min Rain = 0
KGGS 140930Z 05007KT 26/18 A3006 RMK A01 T02620180  RH  064%=      5-min Rain = 0
KGGS 140935Z 05007KT 26/18 A3006 RMK A01 T02620179  RH  064%=      5-min Rain = 0
KGGS 140940Z 05006KT 26/18 A3006 RMK A01 T02610179  RH  064%=      5-min Rain = 0
KGGS 140945Z 05006KT 26/18 A3006 RMK A01 T02600179  RH  064%=      5-min Rain = 0
KGGS 140950Z 04005KT 26/18 A3006 RMK A01 T02580178  RH  065%=      5-min Rain = 0
KGGS 140955Z 03006KT 26/18 A3006 RMK A01 T02560178  RH  066%=      5-min Rain = 0
KGGS 141000Z 02007KT 25/18 A3006 RMK A01 T02540178  RH  066%=      5-min Rain = 0
KGGS 141005Z 03007KT 25/18 A3006 RMK A01 T02540178  RH  066%=      5-min Rain = 0
KGGS 141010Z 03007KT 26/18 A3006 RMK A01 T02550178  RH  066%=      5-min Rain = 0
KGGS 141015Z 03007KT 25/18 A3006 RMK A01 T02540177  RH  066%=      5-min Rain = 0
KGGS 141020Z 03007KT 25/18 A3006 RMK A01 T02540177  RH  066%=      5-min Rain = 0
KGGS 141025Z 03007KT 25/18 A3007 RMK A01 T02540177  RH  066%=      5-min Rain = 0
KGGS 141030Z 03008KT 25/18 A3007 RMK A01 T02540177  RH  066%=      5-min Rain = 0
KGGS 141035Z 03008KT 26/18 A3007 RMK A01 T02550178  RH  066%=      5-min Rain = 0
KGGS 141040Z 03008KT 25/18 A3007 RMK A01 T02540177  RH  066%=      5-min Rain = 0
KGGS 141045Z 03009KT 25/18 A3008 RMK A01 T02540178  RH  066%=      5-min Rain = 0
KGGS 141050Z 03009KT 25/18 A3008 RMK A01 T02540178  RH  066%=      5-min Rain = 0
KGGS 141055Z 03009G14KT 25/18 A3008 RMK A01 T02540178  RH  066%=      5-min Rain = 0
KGGS 141100Z 03009KT 25/18 A3008 RMK A01 T02540178  RH  066%=      5-min Rain = 0
KGGS 141105Z 03009KT 25/18 A3008 RMK A01 T02530178  RH  066%=      5-min Rain = 0
KGGS 141110Z 04008KT 25/18 A3008 RMK A01 T02530178  RH  067%=      5-min Rain = 0
KGGS 141115Z 03009KT 25/18 A3008 RMK A01 T02520178  RH  067%=      5-min Rain = 0
KGGS 141120Z 04007KT 25/18 A3008 RMK A01 T02510178  RH  067%=      5-min Rain = 0
KGGS 141125Z 03008G13KT 25/18 A3009 RMK A01 T02500177  RH  068%=      5-min Rain = 0
KGGS 141130Z 03009G14KT 25/18 A3009 RMK A01 T02500178  RH  068%=      5-min Rain = 0
KGGS 141135Z 03010G15KT 25/18 A301 RMK A01 T02490178  RH  068%=      5-min Rain = 0
KGGS 141140Z 03012G17KT 25/18 A301 RMK A01 T02490177  RH  068%=      5-min Rain = 0
KGGS 141145Z 04010G16KT 25/18 A301 RMK A01 T02480177  RH  068%=      5-min Rain = 0
KGGS 141150Z 04010KT 25/18 A301 RMK A01 T02470177  RH  068%=      5-min Rain = 0
KGGS 141155Z 04010KT 25/18 A301 RMK A01 T02460177  RH  069%=      5-min Rain = 0
KGGS 141200Z 03013G20KT 25/18 A3011 RMK A01 T02460176  RH  069%=      5-min Rain = 0
KGGS 141205Z 03012G17KT 25/18 A3011 RMK A01 T02460176  RH  068%=      5-min Rain = 0
KGGS 141210Z 03013G19KT 24/17 A3011 RMK A01 T02440174  RH  068%=      5-min Rain = 0
KGGS 141215Z 03015G20KT 24/17 A3011 RMK A01 T02440174  RH  068%=      5-min Rain = 0
KGGS 141220Z 03012G18KT 24/17 A3011 RMK A01 T02430173  RH  068%=      5-min Rain = 0
KGGS 141225Z 03009KT 24/17 A3011 RMK A01 T02430173  RH  068%=      5-min Rain = 0
KGGS 141230Z 03012G18KT 24/17 A3011 RMK A01 T02420172  RH  068%=      5-min Rain = 0
KGGS 141235Z 03012G17KT 24/17 A3012 RMK A01 T02420171  RH  068%=      5-min Rain = 0
KGGS 141240Z 04010KT 24/17 A3012 RMK A01 T02420171  RH  068%=      5-min Rain = 0
KGGS 141245Z 03010G17KT 24/17 A3012 RMK A01 T02430171  RH  068%=      5-min Rain = 0
KGGS 141250Z 03009KT 24/17 A3012 RMK A01 T02430171  RH  067%=      5-min Rain = 0
KGGS 141255Z 03009KT 24/17 A3013 RMK A01 T02440170  RH  067%=      5-min Rain = 0
KGGS 141300Z 02013KT 24/17 A3013 RMK A01 T02440170  RH  067%=      5-min Rain = 0
KGGS 141305Z 02011KT 24/17 A3013 RMK A01 T02440170  RH  067%=      5-min Rain = 0
KGGS 141310Z 02012KT 24/17 A3013 RMK A01 T02430170  RH  067%=      5-min Rain = 0
KGGS 141315Z 02013KT 24/17 A3014 RMK A01 T02400170  RH  068%=      5-min Rain = 0
KGGS 141320Z 03013KT 24/17 A3014 RMK A01 T02390170  RH  069%=      5-min Rain = 0
KGGS 141325Z 03011KT 24/17 A3014 RMK A01 T02390170  RH  069%=      5-min Rain = 0
KGGS 141330Z 03012G18KT 24/17 A3014 RMK A01 T02400171  RH  069%=      5-min Rain = 0
KGGS 141335Z 03012G18KT 24/17 A3015 RMK A01 T02390170  RH  069%=      5-min Rain = 0
KGGS 141340Z 03013G18KT 24/17 A3015 RMK A01 T02390170  RH  069%=      5-min Rain = 0
KGGS 141345Z 03013G18KT 24/17 A3015 RMK A01 T02380169  RH  069%=      5-min Rain = 0
KGGS 141350Z 02013G19KT 24/17 A3015 RMK A01 T02400169  RH  068%=      5-min Rain = 0
KGGS 141355Z 02014KT 24/17 A3016 RMK A01 T02410169  RH  067%=      5-min Rain = 0
KGGS 141400Z 02012G22KT 25/17 A3016 RMK A01 T02490169  RH  064%=      5-min Rain = 0
KGGS 141405Z 02015G20KT 25/17 A3016 RMK A01 T02470166  RH  064%=      5-min Rain = 0
KGGS 141410Z 02013KT 25/17 A3016 RMK A01 T02470167  RH  064%=      5-min Rain = 0
KGGS 141415Z 02013G18KT 25/17 A3016 RMK A01 T02500168  RH  063%=      5-min Rain = 0
KGGS 141420Z 01013G18KT 25/17 A3017 RMK A01 T02530166  RH  062%=      5-min Rain = 0
KGGS 141425Z 01014KT 25/17 A3017 RMK A01 T02530167  RH  062%=      5-min Rain = 0
KGGS 141430Z 01015G20KT 25/17 A3017 RMK A01 T02530167  RH  062%=      5-min Rain = 0
KGGS 141435Z 01015G20KT 25/17 A3017 RMK A01 T02540167  RH  061%=      5-min Rain = 0
KGGS 141440Z 02014G20KT 25/17 A3017 RMK A01 T02540168  RH  062%=      5-min Rain = 0
KGGS 141445Z 03015G21KT 25/17 A3018 RMK A01 T02510168  RH  063%=      5-min Rain = 0
KGGS 141450Z 02014G20KT 26/17 A3018 RMK A01 T02560170  RH  062%=      5-min Rain = 0
KGGS 141455Z 03013G18KT 26/17 A3018 RMK A01 T02590170  RH  061%=      5-min Rain = 0
KGGS 141500Z 02013KT 26/17 A3018 RMK A01 T02640170  RH  059%=      5-min Rain = 0
KGGS 141505Z 02015KT 27/17 A3018 RMK A01 T02650170  RH  059%=      5-min Rain = 0
KGGS 141510Z 02013G19KT 27/17 A3017 RMK A01 T02680172  RH  059%=      5-min Rain = 0
KGGS 141515Z 02014G19KT 27/17 A3018 RMK A01 T02690171  RH  058%=      5-min Rain = 0
KGGS 141520Z 02015KT 27/17 A3018 RMK A01 T02690173  RH  058%=      5-min Rain = 0
KGGS 141525Z 03013G19KT 27/17 A3017 RMK A01 T02730172  RH  057%=      5-min Rain = 0
KGGS 141530Z 02015G20KT 28/17 A3018 RMK A01 T02760172  RH  056%=      5-min Rain = 0
KGGS 141535Z 03014G20KT 28/17 A3018 RMK A01 T02770173  RH  056%=      5-min Rain = 0
KGGS 141540Z 04014G19KT 28/17 A3017 RMK A01 T02780173  RH  056%=      5-min Rain = 0
KGGS 141545Z 04013G22KT 28/17 A3017 RMK A01 T02820173  RH  054%=      5-min Rain = 0
KGGS 141550Z 05014KT 28/17 A3017 RMK A01 T02800174  RH  055%=      5-min Rain = 0
KGGS 141555Z 05014G19KT 29/17 A3017 RMK A01 T02850174  RH  053%=      5-min Rain = 0
KGGS 141600Z 04013G24KT 29/17 A3018 RMK A01 T02880173  RH  053%=      5-min Rain = 0
KGGS 141605Z 04015G22KT 29/17 A3018 RMK A01 T02880173  RH  053%=      5-min Rain = 0
KGGS 141610Z 04013G21KT 29/17 A3018 RMK A01 T02880172  RH  052%=      5-min Rain = 0
KGGS 141615Z 03014G19KT 29/17 A3018 RMK A01 T02930170  RH  050%=      5-min Rain = 0
KGGS 141620Z 03013G18KT 29/17 A3018 RMK A01 T02930168  RH  049%=      5-min Rain = 0
KGGS 141625Z 05012G17KT 30/17 A3017 RMK A01 T02980168  RH  048%=      5-min Rain = 0
KGGS 141630Z 05012G17KT 30/17 A3017 RMK A01 T03000166  RH  047%=      5-min Rain = 0
KGGS 141635Z 04014KT 30/17 A3017 RMK A01 T02990165  RH  047%=      5-min Rain = 0
KGGS 141640Z 04012G17KT 30/17 A3017 RMK A01 T03030165  RH  046%=      5-min Rain = 0
KGGS 141645Z 05011KT 30/17 A3017 RMK A01 T03040165  RH  045%=      5-min Rain = 0
KGGS 141650Z 05010G15KT 31/17 A3016 RMK A01 T03100165  RH  044%=      5-min Rain = 0
KGGS 141655Z 06010G15KT 31/17 A3016 RMK A01 T03080165  RH  044%=      5-min Rain = 0
KGGS 141700Z 04011G16KT 31/17 A3016 RMK A01 T03080165  RH  044%=      5-min Rain = 0
KGGS 141705Z 07011G17KT 31/17 A3016 RMK A01 T03100165  RH  044%=      5-min Rain = 0
KGGS 141710Z 05011G17KT 31/16 A3016 RMK A01 T03110164  RH  043%=      5-min Rain = 0
KGGS 141715Z 05009G14KT 31/16 A3016 RMK A01 T03140164  RH  043%=      5-min Rain = 0
KGGS 141720Z 06011G18KT 32/16 A3015 RMK A01 T03190162  RH  041%=      5-min Rain = 0
KGGS 141725Z 07010G17KT 31/16 A3015 RMK A01 T03130162  RH  042%=      5-min Rain = 0
KGGS 141730Z 05012G18KT 32/16 A3015 RMK A01 T03170160  RH  041%=      5-min Rain = 0
KGGS 141735Z 04012G19KT 32/16 A3015 RMK A01 T03200160  RH  040%=      5-min Rain = 0
KGGS 141740Z 05012G17KT 32/16 A3015 RMK A01 T03200157  RH  039%=      5-min Rain = 0
KGGS 141745Z 02010KT 32/16 A3015 RMK A01 T03220160  RH  040%=      5-min Rain = 0
KGGS 141750Z 06010G15KT 33/16 A3014 RMK A01 T03250160  RH  039%=      5-min Rain = 0
KGGS 141755Z 07010G17KT 32/16 A3014 RMK A01 T03220160  RH  040%=      5-min Rain = 0
KGGS 141800Z 06010G16KT 32/16 A3014 RMK A01 T03210157  RH  039%=      5-min Rain = 0
KGGS 141805Z 05010G15KT 33/16 A3014 RMK A01 T03280156  RH  037%=      5-min Rain = 0
KGGS 141810Z 05009G15KT 33/16 A3013 RMK A01 T03250159  RH  039%=      5-min Rain = 0
KGGS 141815Z 04011G18KT 33/16 A3013 RMK A01 T03290158  RH  038%=      5-min Rain = 0
KGGS 141820Z 03010KT 33/16 A3013 RMK A01 T03330158  RH  037%=      5-min Rain = 0
KGGS 141825Z 04010G18KT 34/15 A3013 RMK A01 T03350151  RH  035%=      5-min Rain = 0
KGGS 141830Z 04010G15KT 33/15 A3013 RMK A01 T03340147  RH  034%=      5-min Rain = 0
KGGS 141835Z 05009G17KT 34/15 A3012 RMK A01 T03350152  RH  035%=      5-min Rain = 0
KGGS 141840Z 03010G15KT 33/15 A3012 RMK A01 T03340149  RH  034%=      5-min Rain = 0
KGGS 141845Z 06011G21KT 34/15 A3012 RMK A01 T03390153  RH  034%=      5-min Rain = 0
KGGS 141850Z 06008G15KT 33/15 A3012 RMK A01 T03320153  RH  036%=      5-min Rain = 0
KGGS 141855Z 05008G14KT 34/15 A3011 RMK A01 T03360148  RH  034%=      5-min Rain = 0
KGGS 141900Z 06010G19KT 34/15 A3011 RMK A01 T03400146  RH  033%=      5-min Rain = 0
KGGS 141905Z 06011G17KT 34/14 A3011 RMK A01 T03410141  RH  031%=      5-min Rain = 0
KGGS 141910Z 08008G14KT 34/14 A3011 RMK A01 T03420141  RH  031%=      5-min Rain = 0
KGGS 141915Z 05009G14KT 35/14 A301 RMK A01 T03460143  RH  031%=      5-min Rain = 0
KGGS 141920Z 06010G15KT 35/14 A301 RMK A01 T03480138  RH  030%=      5-min Rain = 0
KGGS 141925Z 07008G13KT 35/14 A301 RMK A01 T03490135  RH  029%=      5-min Rain = 0
KGGS 141930Z 07007G14KT 36/14 A3009 RMK A01 T03550137  RH  028%=      5-min Rain = 0
KGGS 141935Z 08010G15KT 35/14 A3009 RMK A01 T03500135  RH  029%=      5-min Rain = 0
KGGS 141940Z 09011KT 35/14 A3009 RMK A01 T03460136  RH  029%=      5-min Rain = 0
KGGS 141945Z 09009G14KT 35/14 A3009 RMK A01 T03470138  RH  030%=      5-min Rain = 0
KGGS 141950Z 07009G16KT 35/14 A3008 RMK A01 T03460138  RH  030%=      5-min Rain = 0
KGGS 141955Z 04012G17KT 35/13 A3008 RMK A01 T03540131  RH  027%=      5-min Rain = 0
KGGS 142000Z 06010G15KT 35/14 A3008 RMK A01 T03530135  RH  028%=      5-min Rain = 0
KGGS 142005Z 06010G15KT 36/13 A3008 RMK A01 T03560128  RH  026%=      5-min Rain = 0
KGGS 142010Z 07011G21KT 36/13 A3008 RMK A01 T03570128  RH  026%=      5-min Rain = 0
KGGS 142015Z 06014G20KT 36/12 A3007 RMK A01 T03550122  RH  026%=      5-min Rain = 0
KGGS 142020Z 05010KT 36/13 A3007 RMK A01 T03560125  RH  026%=      5-min Rain = 0
KGGS 142025Z 07011G16KT 36/13 A3007 RMK A01 T03590126  RH  026%=      5-min Rain = 0
KGGS 142030Z 09011G18KT 36/12 A3006 RMK A01 T03570124  RH  026%=      5-min Rain = 0
KGGS 142035Z 07010G19KT 36/13 A3006 RMK A01 T03580126  RH  026%=      5-min Rain = 0
KGGS 142040Z 07012G18KT 36/12 A3006 RMK A01 T03580121  RH  025%=      5-min Rain = 0
KGGS 142045Z 05012G19KT 36/12 A3005 RMK A01 T03580118  RH  024%=      5-min Rain = 0
KGGS 142050Z 04013KT 36/12 A3005 RMK A01 T03630123  RH  025%=      5-min Rain = 0
KGGS 142055Z 05009G16KT 36/12 A3005 RMK A01 T03570115  RH  024%=      5-min Rain = 0
KGGS 142100Z 07010G17KT 36/11 A3005 RMK A01 T03630110  RH  023%=      5-min Rain = 0
KGGS 142105Z 06010KT 36/12 A3005 RMK A01 T03610117  RH  024%=      5-min Rain = 0
KGGS 142110Z 05008G15KT 37/10 A3004 RMK A01 T03660103  RH  021%=      5-min Rain = 0
KGGS 142115Z 05009G15KT 37/11 A3004 RMK A01 T03670107  RH  022%=      5-min Rain = 0
KGGS 142120Z 05009G18KT 37/11 A3004 RMK A01 T03650108  RH  022%=      5-min Rain = 0
KGGS 142125Z 06006G11KT 36/11 A3004 RMK A01 T03620113  RH  023%=      5-min Rain = 0
KGGS 142130Z 08009G14KT 36/12 A3004 RMK A01 T03610121  RH  025%=      5-min Rain = 0
KGGS 142135Z 07006KT 36/12 A3004 RMK A01 T03600119  RH  024%=      5-min Rain = 0
KGGS 142140Z 05010G15KT 37/11 A3004 RMK A01 T03690108  RH  021%=      5-min Rain = 0
KGGS 142145Z 06006G14KT 37/11 A3004 RMK A01 T03680105  RH  021%=      5-min Rain = 0
KGGS 142150Z 07009G14KT 36/11 A3004 RMK A01 T03620113  RH  023%=      5-min Rain = 0
KGGS 142155Z 05005KT 36/11 A3003 RMK A01 T03590111  RH  023%=      5-min Rain = 0
KGGS 142200Z 06010G16KT 37/11 A3003 RMK A01 T03650110  RH  022%=      5-min Rain = 0
KGGS 142205Z 06011G17KT 37/11 A3003 RMK A01 T03650108  RH  022%=      5-min Rain = 0
KGGS 142210Z 06007G14KT 37/11 A3003 RMK A01 T03670109  RH  022%=      5-min Rain = 0
KGGS 142215Z 07009G15KT 37/11 A3003 RMK A01 T03650113  RH  023%=      5-min Rain = 0
KGGS 142220Z 06008G13KT 36/11 A3003 RMK A01 T03620113  RH  023%=      5-min Rain = 0
KGGS 142225Z 09008KT 36/12 A3003 RMK A01 T03600115  RH  024%=      5-min Rain = 0
KGGS 142230Z 10007G14KT 36/12 A3002 RMK A01 T03610115  RH  024%=      5-min Rain = 0
KGGS 142235Z 09007G15KT 36/12 A3002 RMK A01 T03600116  RH  024%=      5-min Rain = 0
KGGS 142240Z 08008G13KT 36/12 A3002 RMK A01 T03640116  RH  023%=      5-min Rain = 0
KGGS 142245Z 11004KT 37/12 A3002 RMK A01 T03650116  RH  023%=      5-min Rain = 0
KGGS 142250Z 10009G16KT 36/13 A3002 RMK A01 T03600126  RH  025%=      5-min Rain = 0
KGGS 142255Z 08008KT 36/13 A3002 RMK A01 T03560129  RH  027%=      5-min Rain = 0
KGGS 142300Z 09009G16KT 36/13 A3002 RMK A01 T03560128  RH  026%=      5-min Rain = 0
KGGS 142305Z 09007G13KT 36/13 A3002 RMK A01 T03560125  RH  026%=      5-min Rain = 0
KGGS 142310Z 08009G14KT 36/12 A3002 RMK A01 T03570122  RH  025%=      5-min Rain = 0
KGGS 142315Z 08008G17KT 36/13 A3002 RMK A01 T03560127  RH  026%=      5-min Rain = 0
KGGS 142320Z 09009G14KT 36/13 A3002 RMK A01 T03550132  RH  027%=      5-min Rain = 0
KGGS 142325Z 09010KT 35/14 A3002 RMK A01 T03530137  RH  029%=      5-min Rain = 0
KGGS 142330Z 08009G15KT 35/14 A3002 RMK A01 T03520137  RH  029%=      5-min Rain = 0
KGGS 142335Z 09009G14KT 35/14 A3002 RMK A01 T03510137  RH  029%=      5-min Rain = 0
KGGS 142340Z 11009KT 35/14 A3002 RMK A01 T03490136  RH  029%=      5-min Rain = 0
KGGS 142345Z 10009KT 35/14 A3002 RMK A01 T03480137  RH  029%=      5-min Rain = 0
KGGS 142350Z 12008KT 35/14 A3002 RMK A01 T03490137  RH  029%=      5-min Rain = 0
KGGS 142355Z 09006KT 35/14 A3002 RMK A01 T03470138  RH  030%=      5-min Rain = 0
KGGS 150000Z 08008KT 35/14 A3002 RMK A01 T03510138  RH  029%=      5-min Rain = 0
KGGS 150005Z 09008G14KT 35/14 A3002 RMK A01 T03470139  RH  030%=      5-min Rain = 0
KGGS 150010Z 10010G15KT 34/14 A3002 RMK A01 T03440143  RH  031%=      5-min Rain = 0
KGGS 150015Z 11009KT 34/14 A3002 RMK A01 T03420143  RH  032%=      5-min Rain = 0
KGGS 150020Z 10008KT 34/14 A3002 RMK A01 T03420141  RH  031%=      5-min Rain = 0
KGGS 150025Z 09008KT 34/14 A3002 RMK A01 T03410141  RH  031%=      5-min Rain = 0
KGGS 150030Z 10008KT 34/14 A3002 RMK A01 T03400143  RH  032%=      5-min Rain = 0
KGGS 150035Z 09009KT 34/14 A3002 RMK A01 T03370144  RH  033%=      5-min Rain = 0
KGGS 150040Z 10009G15KT 34/14 A3002 RMK A01 T03360143  RH  033%=      5-min Rain = 0
KGGS 150045Z 11008G13KT 34/14 A3003 RMK A01 T03350143  RH  033%=      5-min Rain = 0
KGGS 150050Z 11007KT 33/14 A3003 RMK A01 T03340143  RH  033%=      5-min Rain = 0
KGGS 150055Z 11007G12KT 33/14 A3003 RMK A01 T03320143  RH  033%=      5-min Rain = 0
KGGS 150100Z 10006KT 33/14 A3003 RMK A01 T03310143  RH  034%=      5-min Rain = 0
KGGS 150105Z 10007KT 33/14 A3003 RMK A01 T03300142  RH  034%=      5-min Rain = 0
KGGS 150110Z 11007KT 33/14 A3004 RMK A01 T03280142  RH  034%=      5-min Rain = 0
KGGS 150115Z 12008G15KT 33/14 A3004 RMK A01 T03260141  RH  034%=      5-min Rain = 0
KGGS 150120Z 11007G12KT 33/14 A3004 RMK A01 T03250142  RH  034%=      5-min Rain = 0
KGGS 150125Z 10006KT 32/14 A3004 RMK A01 T03230142  RH  035%=      5-min Rain = 0
KGGS 150130Z 10007KT 32/14 A3005 RMK A01 T03210143  RH  035%=      5-min Rain = 0
KGGS 150135Z 10006KT 32/14 A3005 RMK A01 T03190142  RH  036%=      5-min Rain = 0
KGGS 150140Z 10005KT 32/14 A3005 RMK A01 T03170142  RH  036%=      5-min Rain = 0
KGGS 150145Z 10006KT 32/14 A3005 RMK A01 T03160140  RH  036%=      5-min Rain = 0
KGGS 150150Z 11006KT 32/14 A3005 RMK A01 T03150139  RH  036%=      5-min Rain = 0
KGGS 150155Z 11006KT 31/14 A3006 RMK A01 T03140138  RH  036%=      5-min Rain = 0
KGGS 150200Z 11005KT 31/14 A3006 RMK A01 T03120138  RH  036%=      5-min Rain = 0
KGGS 150205Z 11005KT 31/14 A3006 RMK A01 T03110138  RH  036%=      5-min Rain = 0
KGGS 150210Z 11006KT 31/14 A3007 RMK A01 T03100137  RH  036%=      5-min Rain = 0
KGGS 150215Z 11005KT 31/14 A3007 RMK A01 T03090137  RH  037%=      5-min Rain = 0
KGGS 150220Z 10005KT 31/14 A3007 RMK A01 T03080138  RH  037%=      5-min Rain = 0
KGGS 150225Z 10006KT 31/14 A3008 RMK A01 T03080139  RH  037%=      5-min Rain = 0
KGGS 150230Z 10006KT 31/14 A3008 RMK A01 T03080140  RH  038%=      5-min Rain = 0
KGGS 150235Z 10006KT 31/14 A3008 RMK A01 T03070141  RH  038%=      5-min Rain = 0
KGGS 150240Z 10005KT 31/14 A3008 RMK A01 T03050141  RH  039%=      5-min Rain = 0
KGGS 150245Z 10005KT 30/14 A3008 RMK A01 T03040142  RH  039%=      5-min Rain = 0
KGGS 150250Z 10006KT 31/14 A3008 RMK A01 T03050142  RH  039%=      5-min Rain = 0
KGGS 150255Z 10006KT 31/14 A3008 RMK A01 T03050142  RH  039%=      5-min Rain = 0
KGGS 150300Z 09006KT 30/14 A3008 RMK A01 T03030143  RH  039%=      5-min Rain = 0
KGGS 150305Z 09006KT 30/14 A3008 RMK A01 T03000143  RH  040%=      5-min Rain = 0
KGGS 150310Z 09006KT 30/14 A3009 RMK A01 T02970143  RH  041%=      5-min Rain = 0
KGGS 150315Z 09005KT 29/14 A3009 RMK A01 T02940143  RH  041%=      5-min Rain = 0
KGGS 150320Z 09005KT 29/14 A3009 RMK A01 T02920143  RH  042%=      5-min Rain = 0
KGGS 150325Z 08005KT 29/14 A301 RMK A01 T02900143  RH  043%=      5-min Rain = 0
KGGS 150330Z 08005KT 29/14 A301 RMK A01 T02880144  RH  043%=      5-min Rain = 0
KGGS 150335Z 09005KT 29/14 A301 RMK A01 T02880144  RH  043%=      5-min Rain = 0
KGGS 150340Z 09005KT 29/14 A301 RMK A01 T02870144  RH  044%=      5-min Rain = 0
KGGS 150345Z 09005KT 29/14 A301 RMK A01 T02850144  RH  044%=      5-min Rain = 0
KGGS 150350Z 09005KT 29/15 A301 RMK A01 T02850145  RH  044%=      5-min Rain = 0
KGGS 150355Z 09005KT 28/15 A301 RMK A01 T02840145  RH  044%=      5-min Rain = 0
KGGS 150400Z 09005KT 28/15 A301 RMK A01 T02840146  RH  045%=      5-min Rain = 0
KGGS 150405Z 09004KT 28/15 A301 RMK A01 T02840146  RH  045%=      5-min Rain = 0
KGGS 150410Z 08005KT 28/15 A301 RMK A01 T02820146  RH  045%=      5-min Rain = 0
KGGS 150415Z 07005KT 28/15 A301 RMK A01 T02800146  RH  046%=      5-min Rain = 0
KGGS 150420Z 06006KT 28/15 A3009 RMK A01 T02770146  RH  047%=      5-min Rain = 0
KGGS 150425Z 07005KT 28/15 A301 RMK A01 T02760147  RH  047%=      5-min Rain = 0
KGGS 150430Z 07005KT 28/15 A301 RMK A01 T02780149  RH  047%=      5-min Rain = 0
KGGS 150435Z 08005KT 28/15 A301 RMK A01 T02780150  RH  048%=      5-min Rain = 0
KGGS 150440Z 08005KT 28/15 A301 RMK A01 T02770150  RH  048%=      5-min Rain = 0
KGGS 150445Z 08004KT 28/15 A301 RMK A01 T02760151  RH  048%=      5-min Rain = 0
KGGS 150450Z 09003KT 28/15 A301 RMK A01 T02760151  RH  049%=      5-min Rain = 0
KGGS 150455Z 08002KT 27/15 A3011 RMK A01 T02740151  RH  049%=      5-min Rain = 0

Page generated in 0.0087 seconds.